createdAt,value
2023-03-06T00:01:49.662Z,4.33
2023-03-06T00:04:36.239Z,3.97
2023-03-06T00:07:22.929Z,5.03
2023-03-06T00:10:09.864Z,3.67
2023-03-06T00:12:57.023Z,4.30
2023-03-06T00:15:43.530Z,3.50
2023-03-06T00:18:31.021Z,3.57
2023-03-06T00:21:17.498Z,3.93
2023-03-06T00:24:03.659Z,3.33
2023-03-06T00:26:50.052Z,3.17
2023-03-06T00:29:36.880Z,2.80
2023-03-06T00:32:23.741Z,2.93
2023-03-06T00:35:11.801Z,2.80
2023-03-06T00:37:59.806Z,3.47
2023-03-06T00:40:46.174Z,3.37
2023-03-06T00:43:32.523Z,4.33
2023-03-06T00:46:18.683Z,3.67
2023-03-06T00:49:05.088Z,3.47
2023-03-06T00:51:52.851Z,3.30
2023-03-06T00:54:40.207Z,3.93
2023-03-06T00:57:26.619Z,4.10
2023-03-06T01:00:13.932Z,4.40
2023-03-06T01:03:00.497Z,3.50
2023-03-06T01:05:46.641Z,2.67
2023-03-06T01:08:34.505Z,3.83
2023-03-06T01:11:21.165Z,4.53
2023-03-06T01:14:07.854Z,4.27
2023-03-06T01:16:54.061Z,3.50
2023-03-06T01:19:40.425Z,4.30
2023-03-06T01:22:26.957Z,3.93
2023-03-06T01:25:14.438Z,4.13
2023-03-06T01:28:00.783Z,4.13
2023-03-06T01:30:47.300Z,4.10
2023-03-06T01:33:33.432Z,3.80
2023-03-06T01:36:20.262Z,5.10
2023-03-06T01:39:06.436Z,4.00
2023-03-06T01:41:54.184Z,3.40
2023-03-06T01:44:55.498Z,4.33
2023-03-06T01:47:41.668Z,3.27
2023-03-06T01:50:27.901Z,3.60
2023-03-06T01:53:14.419Z,3.90
2023-03-06T01:56:01.023Z,3.47
2023-03-06T01:58:49.750Z,3.60
2023-03-06T02:01:36.886Z,2.40
2023-03-06T02:04:23.691Z,3.50
2023-03-06T02:07:10.454Z,3.53
2023-03-06T02:09:56.547Z,3.60
2023-03-06T02:12:43.905Z,3.30
2023-03-06T02:15:32.152Z,3.83
2023-03-06T02:18:18.301Z,3.23
2023-03-06T02:21:07.217Z,3.83
2023-03-06T02:24:01.073Z,3.20
2023-03-06T02:26:49.251Z,3.20
2023-03-06T02:29:35.937Z,3.90
2023-03-06T02:32:22.522Z,3.80
2023-03-06T02:35:16.708Z,3.63
2023-03-06T02:38:05.765Z,3.23
2023-03-06T02:40:52.895Z,4.60
2023-03-06T02:43:42.064Z,2.63
2023-03-06T02:46:28.396Z,2.67
2023-03-06T02:49:14.634Z,2.87
2023-03-06T02:52:01.180Z,3.40
2023-03-06T02:54:47.613Z,2.80
2023-03-06T02:57:33.788Z,3.37
2023-03-06T03:00:22.373Z,3.30
2023-03-06T03:03:08.873Z,3.63
2023-03-06T03:05:55.370Z,3.30
2023-03-06T03:08:42.014Z,3.10
2023-03-06T03:11:28.054Z,2.83
2023-03-06T03:14:14.334Z,2.80
2023-03-06T03:17:02.403Z,2.87
2023-03-06T03:19:48.832Z,3.30
2023-03-06T03:22:35.207Z,2.83
2023-03-06T03:25:21.760Z,2.97
2023-03-06T03:28:08.050Z,3.77
2023-03-06T03:30:54.328Z,3.27
2023-03-06T03:33:42.366Z,2.83
2023-03-06T03:36:28.795Z,3.10
2023-03-06T03:39:15.299Z,3.70
2023-03-06T03:42:02.593Z,3.13
2023-03-06T03:44:49.069Z,2.63
2023-03-06T03:47:35.385Z,2.90
2023-03-06T03:50:23.212Z,3.03
2023-03-06T03:53:09.541Z,3.07
2023-03-06T03:55:55.768Z,2.97
2023-03-06T03:58:42.009Z,2.83
2023-03-06T04:01:28.948Z,3.13
2023-03-06T04:04:15.244Z,3.77
2023-03-06T04:07:04.443Z,3.67
2023-03-06T04:09:50.981Z,3.37
2023-03-06T04:12:37.748Z,5.73
2023-03-06T04:15:24.537Z,3.97
2023-03-06T04:18:11.040Z,4.40
2023-03-06T04:20:57.063Z,3.90
2023-03-06T04:23:45.000Z,4.27
2023-03-06T04:26:31.412Z,3.70
2023-03-06T04:29:17.661Z,3.53
2023-03-06T04:32:04.108Z,3.87
2023-03-06T04:34:50.985Z,2.93
2023-03-06T04:37:37.090Z,3.00
2023-03-06T04:40:27.439Z,3.03
2023-03-06T04:43:14.118Z,3.63
2023-03-06T04:46:00.340Z,3.97
2023-03-06T04:48:46.705Z,4.00
2023-03-06T04:51:33.628Z,4.87
2023-03-06T04:54:19.751Z,4.37
2023-03-06T04:57:07.514Z,3.33
2023-03-06T04:59:54.031Z,4.87
2023-03-06T05:02:41.178Z,6.47
2023-03-06T05:05:28.218Z,4.60
2023-03-06T05:08:16.019Z,4.30
2023-03-06T05:11:03.137Z,3.90
2023-03-06T05:13:51.629Z,4.70
2023-03-06T05:16:38.031Z,4.10
2023-03-06T05:19:24.517Z,3.23
2023-03-06T05:22:11.075Z,4.23
2023-03-06T05:24:57.413Z,4.73
2023-03-06T05:27:44.500Z,3.77
2023-03-06T05:30:32.084Z,3.70
2023-03-06T05:33:18.751Z,4.47
2023-03-06T05:36:05.399Z,3.77
2023-03-06T05:38:51.753Z,4.37
2023-03-06T05:41:37.953Z,3.37
2023-03-06T05:44:24.197Z,4.00
2023-03-06T05:47:12.105Z,3.07
2023-03-06T05:49:58.706Z,3.83
2023-03-06T05:52:44.797Z,3.27
2023-03-06T05:55:31.346Z,4.23
2023-03-06T05:58:17.454Z,4.33
2023-03-06T06:01:09.403Z,4.33
2023-03-06T06:03:57.325Z,4.17
2023-03-06T06:06:43.742Z,4.20
2023-03-06T06:09:30.591Z,5.13
2023-03-06T06:12:17.049Z,4.87
2023-03-06T06:15:03.373Z,4.10
2023-03-06T06:17:49.779Z,4.07
2023-03-06T06:20:37.834Z,4.13
2023-03-06T06:23:24.239Z,4.53
2023-03-06T06:26:11.227Z,4.27
2023-03-06T06:29:00.032Z,3.70
2023-03-06T06:31:46.721Z,3.07
2023-03-06T06:34:33.170Z,3.57
2023-03-06T06:37:20.832Z,2.93
2023-03-06T06:40:10.038Z,3.63
2023-03-06T06:42:56.378Z,1.77
2023-03-06T06:45:44.312Z,3.00
2023-03-06T06:48:32.157Z,2.30
2023-03-06T06:51:18.417Z,3.20
2023-03-06T06:54:05.951Z,2.90
2023-03-06T06:56:52.541Z,2.40
2023-03-06T06:59:38.840Z,2.90
2023-03-06T07:02:24.948Z,1.90
2023-03-06T07:05:11.723Z,2.83
2023-03-06T07:07:58.227Z,2.27
2023-03-06T07:10:45.952Z,2.67
2023-03-06T07:13:32.334Z,2.70
2023-03-06T07:16:18.807Z,3.10
2023-03-06T07:19:05.524Z,2.60
2023-03-06T07:21:51.687Z,2.17
2023-03-06T07:24:38.256Z,2.53
2023-03-06T07:27:26.334Z,2.73
2023-03-06T07:30:13.576Z,2.60
2023-03-06T07:32:59.969Z,2.10
2023-03-06T07:35:46.217Z,2.90
2023-03-06T07:38:32.976Z,2.87
2023-03-06T07:41:22.172Z,3.13
2023-03-06T07:44:10.482Z,2.13
2023-03-06T07:46:56.929Z,2.40
2023-03-06T07:49:43.464Z,3.23
2023-03-06T07:52:30.011Z,4.13
2023-03-06T07:55:16.451Z,3.03
2023-03-06T07:58:02.633Z,2.50
2023-03-06T08:00:50.271Z,2.90
2023-03-06T08:03:37.472Z,1.73
2023-03-06T08:06:24.896Z,2.80
2023-03-06T08:09:11.077Z,1.73
2023-03-06T08:11:57.721Z,3.50
2023-03-06T08:14:44.203Z,3.00
2023-03-06T08:17:31.803Z,2.43
2023-03-06T08:20:18.612Z,2.87
2023-03-06T08:23:04.965Z,2.73
2023-03-06T08:25:57.046Z,2.90
2023-03-06T08:28:43.840Z,2.70
2023-03-06T08:31:31.879Z,2.90
2023-03-06T08:34:20.659Z,2.60
2023-03-06T08:37:07.419Z,1.60
2023-03-06T08:39:53.764Z,3.33
2023-03-06T08:42:40.080Z,2.60
2023-03-06T08:45:26.524Z,2.30
2023-03-06T08:48:13.153Z,3.37
2023-03-06T08:51:01.012Z,3.17
2023-03-06T08:53:47.944Z,2.77
2023-03-06T08:56:35.228Z,2.77
2023-03-06T08:59:21.493Z,3.13
2023-03-06T09:02:07.927Z,3.00
2023-03-06T09:04:54.664Z,2.53
2023-03-06T09:07:42.225Z,3.03
2023-03-06T09:10:29.213Z,2.07
2023-03-06T09:13:15.693Z,3.47
2023-03-06T09:16:02.057Z,3.53
2023-03-06T09:18:50.413Z,2.80
2023-03-06T09:21:36.799Z,3.43
2023-03-06T09:24:24.569Z,3.37
2023-03-06T09:27:11.026Z,4.20
2023-03-06T09:29:57.488Z,3.00
2023-03-06T09:32:44.230Z,3.43
2023-03-06T09:35:30.758Z,3.07
2023-03-06T09:38:17.526Z,3.30
2023-03-06T09:41:11.666Z,3.40
2023-03-06T09:44:04.838Z,3.10
2023-03-06T09:47:07.023Z,3.27
2023-03-06T09:50:01.862Z,3.67
2023-03-06T09:52:56.595Z,3.20
2023-03-06T09:55:44.626Z,2.87
2023-03-06T09:58:34.198Z,3.27
2023-03-06T10:01:22.066Z,3.60
2023-03-06T10:04:12.419Z,3.53
2023-03-06T10:07:01.070Z,3.80
2023-03-06T10:09:49.409Z,3.63
2023-03-06T10:12:39.224Z,3.03
2023-03-06T10:15:28.576Z,3.50
2023-03-06T10:18:15.215Z,3.83
2023-03-06T10:21:17.255Z,4.43
2023-03-06T10:24:11.960Z,3.43
2023-03-06T10:27:01.147Z,3.63
2023-03-06T10:30:02.052Z,3.30
2023-03-06T10:32:55.935Z,3.67
2023-03-06T10:35:46.893Z,3.17
2023-03-06T10:38:37.532Z,2.73
2023-03-06T10:41:25.558Z,3.47
2023-03-06T10:44:19.148Z,3.27
2023-03-06T10:47:22.978Z,3.03
2023-03-06T10:50:24.081Z,3.17
2023-03-06T10:53:17.821Z,3.37
2023-03-06T10:56:04.287Z,3.57
2023-03-06T10:59:05.434Z,3.50
2023-03-06T11:01:52.412Z,3.17
2023-03-06T11:04:40.400Z,3.50
2023-03-06T11:07:28.905Z,3.80
2023-03-06T11:10:19.508Z,3.50
2023-03-06T11:13:07.665Z,3.77
2023-03-06T11:16:02.504Z,6.80
2023-03-06T11:18:59.007Z,3.90
2023-03-06T11:21:59.654Z,4.30
2023-03-06T11:24:48.812Z,3.73
2023-03-06T11:27:36.049Z,3.73
2023-03-06T11:30:24.796Z,3.80
2023-03-06T11:33:18.146Z,2.83
2023-03-06T11:36:10.557Z,3.57
2023-03-06T11:38:56.791Z,4.23
2023-03-06T11:41:48.693Z,2.27
2023-03-06T11:44:41.878Z,3.77
2023-03-06T11:47:30.616Z,3.93
2023-03-06T11:50:20.404Z,3.90
2023-03-06T11:53:07.457Z,3.60
2023-03-06T11:56:00.094Z,3.63
2023-03-06T11:59:19.800Z,3.07
2023-03-06T12:02:14.053Z,3.43
2023-03-06T12:05:06.905Z,3.47
2023-03-06T12:07:57.197Z,3.40
2023-03-06T12:10:51.475Z,3.50
2023-03-06T12:13:56.863Z,3.43
2023-03-06T12:16:51.121Z,4.27
2023-03-06T12:19:47.742Z,4.00
2023-03-06T12:22:53.398Z,3.90
2023-03-06T12:25:52.697Z,3.37
2023-03-06T12:28:46.436Z,3.20
2023-03-06T12:31:51.067Z,3.90
2023-03-06T12:34:47.434Z,3.50
2023-03-06T12:37:39.291Z,3.80
2023-03-06T12:40:38.052Z,3.60
2023-03-06T12:43:45.709Z,3.73
2023-03-06T12:46:42.761Z,3.67
2023-03-06T12:49:33.006Z,3.67
2023-03-06T12:52:29.581Z,3.60
2023-03-06T12:55:18.919Z,3.87
2023-03-06T12:58:24.886Z,3.30
2023-03-06T13:01:15.086Z,3.73
2023-03-06T13:04:06.985Z,3.60
2023-03-06T13:07:02.076Z,3.70
2023-03-06T13:09:59.933Z,3.70
2023-03-06T13:12:56.130Z,3.90
2023-03-06T13:15:43.718Z,3.60
2023-03-06T13:18:57.538Z,4.20
2023-03-06T13:21:45.275Z,3.23
2023-03-06T13:24:33.175Z,3.97
2023-03-06T13:27:45.689Z,3.97
2023-03-06T13:30:45.912Z,3.20
2023-03-06T13:33:50.742Z,3.73
2023-03-06T13:36:39.753Z,3.33
2023-03-06T13:39:26.287Z,3.50
2023-03-06T13:42:26.809Z,3.80
2023-03-06T13:45:16.653Z,4.20
2023-03-06T13:51:17.053Z,3.27
2023-03-06T13:54:18.029Z,3.60
2023-03-06T13:57:25.627Z,3.43
2023-03-06T14:00:21.770Z,3.73
2023-03-06T14:03:22.746Z,3.53
2023-03-06T14:06:23.830Z,3.40
2023-03-06T14:09:14.950Z,3.07
2023-03-06T14:12:03.341Z,3.07
2023-03-06T14:14:51.939Z,3.30
2023-03-06T14:17:40.307Z,3.73
2023-03-06T14:20:28.721Z,3.23
2023-03-06T14:23:15.482Z,3.63
2023-03-06T14:26:08.831Z,4.20
2023-03-06T14:28:56.311Z,3.93
2023-03-06T14:31:43.838Z,3.77
2023-03-06T14:34:32.264Z,3.63
2023-03-06T14:37:23.157Z,3.87
2023-03-06T14:40:11.000Z,3.17
2023-03-06T14:43:27.972Z,3.50
2023-03-06T14:46:18.704Z,3.70
2023-03-06T14:49:07.389Z,3.10
2023-03-06T14:51:55.908Z,3.80
2023-03-06T14:54:44.869Z,3.30
2023-03-06T14:57:31.465Z,3.20
2023-03-06T15:00:20.579Z,3.57
2023-03-06T15:03:08.660Z,3.83
2023-03-06T15:05:55.439Z,3.07
2023-03-06T15:08:45.030Z,3.37
2023-03-06T15:11:46.021Z,2.90
2023-03-06T15:14:33.968Z,5.17
2023-03-06T15:17:25.132Z,4.57
2023-03-06T15:20:26.242Z,3.07
2023-03-06T15:23:23.537Z,3.57
2023-03-06T15:26:29.375Z,3.80
2023-03-06T15:29:22.953Z,3.93
2023-03-06T15:32:16.924Z,3.73
2023-03-06T15:35:22.070Z,3.87
2023-03-06T15:38:23.930Z,4.07
2023-03-06T15:41:22.323Z,3.97
2023-03-06T15:44:12.016Z,3.30
2023-03-06T15:47:08.536Z,3.40
2023-03-06T15:49:56.371Z,3.97
2023-03-06T15:52:42.879Z,3.17
2023-03-06T15:55:29.096Z,3.27
2023-03-06T15:58:17.469Z,3.53
2023-03-06T16:01:03.923Z,17.33
2023-03-06T16:03:51.767Z,5.20
2023-03-06T16:06:38.521Z,6.70
2023-03-06T16:09:25.037Z,10.53
2023-03-06T16:12:15.094Z,44.93
2023-03-06T16:15:02.514Z,30.07
2023-03-06T16:17:49.507Z,10.83
2023-03-06T16:20:37.473Z,37.27
2023-03-06T16:23:24.035Z,16.07
2023-03-06T16:26:17.574Z,11.07
2023-03-06T16:29:03.706Z,18.00
2023-03-06T16:31:50.046Z,33.60
2023-03-06T16:34:36.410Z,75.07
2023-03-06T16:37:24.310Z,60.50
2023-03-06T16:40:16.615Z,48.37
2023-03-06T16:43:03.075Z,39.37
2023-03-06T16:45:49.513Z,16.70
2023-03-06T16:48:35.724Z,15.70
2023-03-06T16:51:23.109Z,14.20
2023-03-06T16:54:10.908Z,8.47
2023-03-06T16:56:57.358Z,7.03
2023-03-06T16:59:44.767Z,32.13
2023-03-06T17:02:31.273Z,161.53
2023-03-06T17:05:17.884Z,116.70
2023-03-06T17:08:05.829Z,150.97
2023-03-06T17:10:53.707Z,121.00
2023-03-06T17:13:40.267Z,110.93
2023-03-06T17:16:26.693Z,47.30
2023-03-06T17:19:14.420Z,123.93
2023-03-06T17:22:00.905Z,96.17
2023-03-06T17:24:49.969Z,25.10
2023-03-06T17:27:37.771Z,15.63
2023-03-06T17:30:24.076Z,14.37
2023-03-06T17:33:10.602Z,49.87
2023-03-06T17:36:00.377Z,250.17
2023-03-06T17:38:47.049Z,197.13
2023-03-06T17:41:34.339Z,41.50
2023-03-06T17:44:22.489Z,20.43
2023-03-06T17:47:08.782Z,27.87
2023-03-06T17:49:54.889Z,47.17
2023-03-06T17:52:41.388Z,28.13
2023-03-06T17:55:29.005Z,7.67
2023-03-06T17:58:15.269Z,9.17
2023-03-06T18:01:09.982Z,16.83
2023-03-06T18:03:56.371Z,19.53
2023-03-06T18:06:42.323Z,107.33
2023-03-06T18:09:29.421Z,80.67
2023-03-06T18:12:15.677Z,70.23
2023-03-06T18:15:01.622Z,18.87
2023-03-06T18:17:49.730Z,11.30
2023-03-06T18:20:36.390Z,14.30
2023-03-06T18:23:22.765Z,12.77
2023-03-06T18:26:11.687Z,17.70
2023-03-06T18:29:01.422Z,7.87
2023-03-06T18:31:50.050Z,24.83
2023-03-06T18:34:38.089Z,16.03
2023-03-06T18:37:24.217Z,13.53
2023-03-06T18:40:11.046Z,12.07
2023-03-06T18:42:57.227Z,17.43
2023-03-06T18:45:44.359Z,27.43
2023-03-06T18:48:30.955Z,16.80
2023-03-06T18:51:19.430Z,65.67
2023-03-06T18:54:06.242Z,48.17
2023-03-06T18:56:52.620Z,26.10
2023-03-06T18:59:38.969Z,50.87
2023-03-06T19:02:25.288Z,13.57
2023-03-06T19:05:11.938Z,8.37
2023-03-06T19:07:59.617Z,71.00
2023-03-06T19:10:47.229Z,10.73
2023-03-06T19:13:34.890Z,11.67
2023-03-06T19:16:22.309Z,10.80
2023-03-06T19:19:09.500Z,9.63
2023-03-06T19:21:55.792Z,10.40
2023-03-06T19:24:43.586Z,8.43
2023-03-06T19:27:30.206Z,9.47
2023-03-06T19:30:17.286Z,11.43
2023-03-06T19:33:03.426Z,14.47
2023-03-06T19:35:49.844Z,14.57
2023-03-06T19:38:36.252Z,32.90
2023-03-06T19:41:24.151Z,10.90
2023-03-06T19:44:12.236Z,8.30
2023-03-06T19:46:58.293Z,7.70
2023-03-06T19:49:44.664Z,8.97
2023-03-06T19:52:31.127Z,9.10
2023-03-06T19:55:17.679Z,10.20
2023-03-06T19:58:05.677Z,11.23
2023-03-06T20:00:52.043Z,10.03
2023-03-06T20:03:38.771Z,9.07
2023-03-06T20:06:25.662Z,8.27
2023-03-06T20:09:12.316Z,10.63
2023-03-06T20:11:58.719Z,10.07
2023-03-06T20:14:47.140Z,10.00
2023-03-06T20:17:34.045Z,6.30
2023-03-06T20:20:20.524Z,6.47
2023-03-06T20:23:06.766Z,7.60
2023-03-06T20:25:53.080Z,7.70
2023-03-06T20:28:39.836Z,9.00
2023-03-06T20:31:28.821Z,6.70
2023-03-06T20:34:15.548Z,7.37
2023-03-06T20:37:02.083Z,6.03
2023-03-06T20:39:48.639Z,6.40
2023-03-06T20:42:34.996Z,6.17
2023-03-06T20:45:21.217Z,6.37
2023-03-06T20:48:09.151Z,7.83
2023-03-06T20:51:02.235Z,6.13
2023-03-06T20:53:49.227Z,4.80
2023-03-06T20:56:36.266Z,4.70
2023-03-06T20:59:23.781Z,5.53
2023-03-06T21:02:11.354Z,5.30
2023-03-06T21:05:00.185Z,8.30
2023-03-06T21:07:46.658Z,8.77
2023-03-06T21:10:32.918Z,16.33
2023-03-06T21:13:19.412Z,14.37
2023-03-06T21:16:06.592Z,7.53
2023-03-06T21:18:53.196Z,6.20
2023-03-06T21:21:41.057Z,7.33
2023-03-06T21:24:27.652Z,12.17
2023-03-06T21:27:14.012Z,8.87
2023-03-06T21:30:00.041Z,9.03
2023-03-06T21:32:46.364Z,8.47
2023-03-06T21:35:32.699Z,10.50
2023-03-06T21:38:20.197Z,10.30
2023-03-06T21:41:10.672Z,8.33
2023-03-06T21:43:57.511Z,9.87
2023-03-06T21:46:43.838Z,9.63
2023-03-06T21:49:29.894Z,7.17
2023-03-06T21:52:16.033Z,6.60
2023-03-06T21:55:03.818Z,6.40
2023-03-06T21:57:50.898Z,6.77
2023-03-06T22:00:37.280Z,9.73
2023-03-06T22:03:23.772Z,15.60
2023-03-06T22:06:11.164Z,7.80
2023-03-06T22:08:58.389Z,5.20
2023-03-06T22:11:46.280Z,5.60
2023-03-06T22:14:32.781Z,4.87
2023-03-06T22:17:19.106Z,6.03
2023-03-06T22:20:05.469Z,6.87
2023-03-06T22:22:51.832Z,5.53
2023-03-06T22:25:38.005Z,6.23
2023-03-06T22:28:25.502Z,7.43
2023-03-06T22:31:13.000Z,7.63
2023-03-06T22:34:00.168Z,7.70
2023-03-06T22:36:46.423Z,6.13
2023-03-06T22:39:32.942Z,8.30
2023-03-06T22:42:19.090Z,7.40
2023-03-06T22:45:07.543Z,6.90
2023-03-06T22:48:02.360Z,8.03
2023-03-06T22:50:55.749Z,7.73
2023-03-06T22:53:42.634Z,7.13
2023-03-06T22:56:29.003Z,8.20
2023-03-06T22:59:15.259Z,6.83
2023-03-06T23:02:03.733Z,5.33
2023-03-06T23:04:52.336Z,6.50
2023-03-06T23:07:38.825Z,5.97
2023-03-06T23:10:25.073Z,6.67
2023-03-06T23:13:11.166Z,6.70
2023-03-06T23:15:57.521Z,5.70
2023-03-06T23:18:45.246Z,5.67
2023-03-06T23:21:31.867Z,7.27
2023-03-06T23:24:18.268Z,7.47
2023-03-06T23:27:05.319Z,7.10
2023-03-06T23:29:55.372Z,6.70
2023-03-06T23:32:42.042Z,7.20
2023-03-06T23:35:30.424Z,6.73
2023-03-06T23:38:16.954Z,6.30
2023-03-06T23:41:04.378Z,5.30
2023-03-06T23:43:52.416Z,7.03
2023-03-06T23:46:40.550Z,6.27
2023-03-06T23:49:27.033Z,6.13
2023-03-06T23:52:14.751Z,5.50
2023-03-06T23:55:01.328Z,7.23
2023-03-06T23:57:47.933Z,6.17
